Portada
METAR-TAF:

METAR-TAF

Aeroports :

Aoba Island, Vanuatu

latitud: 15-18-24S, longitud: 167-58-02E, altitud: 51 m

Observació

L'informe es va fer fa 45 minuts, a les 19:00 UTC
Vent 4 kt del Sud
Temperatura 26°C
Humitat 79%
Pressió 1010 hPa

METAR: NVSG 101900Z AUTO 17004KT //// // NCD 26/22 Q1010

Hora: 06:45 (19:45 UTC)

Pronòstic

L'informe es va fer fa 3 hores i 45 minuts, a les 16:00 UTC
Pronòstic vàlid del 10 a les 18 UTC al 11 a les 18 UTC
Vent 5 kt del Sud-Est
Visibilitat: 9000 m
Núvols disperses a una alçada de 2000 ft
Cel ennuvolat a una alçada de 1800 ft
xàfecs de pluja

TAF: NVSG 101600Z 1018/1118 14005KT 9999 SCT020 INTER 1018/1024 9000 -SHRA BKN018

Observacions i pronòstics meteorològics de més de 4000 aeroports (METAR i TAF).

Les estacions disponibles són els punts grocs i vermells al mapa.

Posi el ratolí al punt desitjat per veure el nom de l'estació.

Feu clic per veure les observacions i els pronòstics meteorològics.

Per canviar el mapa: feu clic els botons verds amb una creu de color negre per apropar; al botó verd amb un guió per allunyar la imatge; o en les fletxes verdes per a mapes adjacents.


METAR-TAF: